Overview Statistics Trail Chart Weather Telemetry Raw packets
 

This is the latest recevied weather packets stored in our database for station/object JH7MHZ-13. If no packets are shown the sender has not sent any weather packets the latest 10 day(s).

<< 3 4 5 6 7 8 9 >>
Time Temp. Humidity Pressure Rain* Wind** Luminosity Snow
1788231560 26.11° C 72% 999 hPa 0 mm - - -
1788227959 26.11° C 74% 999.4 hPa 0 mm - - -
1788224359 25.56° C 75% 1000.1 hPa 0 mm - - -
1788220758 23.89° C 78% 1000.8 hPa 0 mm - - -
1788217158 22.78° C 82% 1000.2 hPa 0 mm - - -
1788213557 21.11° C 94% 1000.5 hPa 0 mm - - -
1788209957 19.44° C 95% 1000.2 hPa 0 mm - - -
1788206355 19.44° C 94% 999.8 hPa 0 mm - - -
1788202753 19.44° C 95% 999.8 hPa 0 mm - - -
1788199152 19.44° C 95% 1000 hPa 0 mm - - -
1788195552 19.44° C 95% 999.5 hPa 0 mm - - -
1788191951 20° C 94% 999.2 hPa 0 mm - - -
1788188351 20° C 95% 999.4 hPa 0 mm - - -
1788184750 20° C 96% 1000.2 hPa 0 mm - - -
1788181149 20.56° C 95% 1000.2 hPa 0 mm - - -
1788177549 21.11° C 92% 1000.4 hPa 0 mm - - -
1788173948 21.11° C 93% 999.5 hPa 0 mm - - -
1788170348 22.78° C 85% 999.7 hPa 0 mm - - -
1788166747 23.33° C 83% 999 hPa 0 mm - - -
1788163147 23.89° C 81% 998.9 hPa 0 mm - - -
1788159546 24.44° C 79% 998.1 hPa 0 mm - - -
1788155946 25° C 78% 997.8 hPa 0 mm - - -
1788152345 24.44° C 78% 998.3 hPa 0 mm - - -
1788148744 25° C 77% 998.4 hPa 0 mm - - -
1788145143 23.89° C 79% 998.4 hPa 0 mm - - -

* Rain latest hour (hover to see other rain measurements)
** Current wind speed in m/s (hover to see current wind gust speed)